ENSB/LYR METAR and TAF weather

Enter ICAO airport designator
Station Type Date Time Source
ENSB METAR 2018/04/21 10:50 UTC NOAA

ENSB 211050Z 22010KT 9999 SCT018 BKN030 M01/M05 Q1006 RMK WIND 1400FT 23018KT


Station Type Date Time Source
ENSB Decoded METAR 2018/04/21 10:50 UTC NOAA

Svalbard Lufthavn, Norway (ENSB) 78-15N 015-28E 29M
Apr 21, 2018 - 06:50 AM EDT / 2018.04.21 1050 UTC
Wind: from the SW (220 degrees) at 12 MPH (10 KT):0
Visibility: greater than 7 mile(s):0
Sky conditions: mostly cloudy
Temperature: 30 F (-1 C)
Windchill: 19 F (-7 C):1
Dew Point: 23 F (-5 C)
Relative Humidity: 74%
Pressure (altimeter): 29.71 in. Hg (1006 hPa)
ob: ENSB 211050Z 22010KT 9999 SCT018 BKN030 M01/M05 Q1006 RMK WIND 1400FT 23018KT
cycle: 11

Station Type Date Time Source
ENSB TAF 2018/04/21 06:57 UTC NOAA

TAF ENSB 210500Z 2106/2206 12008KT 9999 FEW012 BKN030
TEMPO 2106/2118 2500 -SN VV012
TEMPO 2106/2112 22015KT
BECMG 2112/2114 28015KT


Example: see airport list